Time;durP1;ratioP1;P1;durP2;ratioP2;P2;SDS_P1;SDS_P2;PMS_P1;PMS_P2;Temp;Humidity;BMP_temperature;BMP_pressure;BME280_temperature;BME280_humidity;BME280_pressure;Samples;Min_cycle;Max_cycle;Signal;HPM_P1;HPM_P2
2021/12/01 00:00:23;;;;;;;18.83;6.43;;;;;;;-145.18;100.00;60484.78;5038337;28;20033;-73
2021/12/01 00:02:53;;;;;;;22.50;6.70;;;;;;;-145.18;100.00;60484.78;5033188;28;20449;-73
2021/12/01 00:05:20;;;;;;;24.23;6.87;;;;;;;-145.18;100.00;60484.78;5035465;28;20078;-73
2021/12/01 00:07:46;;;;;;;21.23;6.23;;;;;;;-145.18;100.00;60484.78;5036685;28;20056;-73
2021/12/01 00:10:12;;;;;;;21.93;6.20;;;;;;;-145.18;100.00;60484.78;5036744;28;20080;-73
2021/12/01 00:12:37;;;;;;;19.80;7.13;;;;;;;-145.18;100.00;60484.78;5039534;28;20028;-73
2021/12/01 00:15:05;;;;;;;21.40;7.00;;;;;;;-145.18;100.00;60484.78;5030460;28;20032;-73
2021/12/01 00:17:30;;;;;;;23.00;7.20;;;;;;;-145.18;100.00;60484.78;5034782;28;20017;-73
2021/12/01 00:19:56;;;;;;;21.93;6.80;;;;;;;-145.18;100.00;60484.78;5036453;28;20024;-73
2021/12/01 00:22:21;;;;;;;21.33;6.73;;;;;;;-145.18;100.00;60484.78;5038364;28;20024;-73
2021/12/01 00:24:47;;;;;;;23.13;7.33;;;;;;;-145.18;100.00;60484.78;5041465;28;20024;-72
2021/12/01 00:27:12;;;;;;;25.83;6.60;;;;;;;-145.18;100.00;60484.78;5033191;28;20020;-73
2021/12/01 00:29:38;;;;;;;23.87;6.67;;;;;;;-145.18;100.00;60484.78;5041083;28;20036;-73
2021/12/01 00:32:04;;;;;;;21.13;6.53;;;;;;;-145.18;100.00;60484.78;5038327;28;20025;-73
2021/12/01 00:34:32;;;;;;;21.00;6.30;;;;;;;-145.18;100.00;60484.78;5038191;28;20107;-73
2021/12/01 00:36:57;;;;;;;24.73;6.17;;;;;;;-145.18;100.00;60484.78;5037234;28;20021;-73
2021/12/01 00:39:23;;;;;;;21.87;5.20;;;;;;;-145.18;100.00;60484.78;5032744;28;20033;-73
2021/12/01 00:41:50;;;;;;;17.93;6.03;;;;;;;-145.18;100.00;60484.78;5039496;28;20033;-73
2021/12/01 00:44:15;;;;;;;14.87;5.13;;;;;;;-145.18;100.00;60484.78;5028774;28;20108;-74
2021/12/01 00:46:45;;;;;;;15.93;4.90;;;;;;;-145.18;100.00;60484.78;5036720;28;20108;-73
2021/12/01 00:49:11;;;;;;;18.43;5.20;;;;;;;-145.18;100.00;60484.78;5031708;28;20052;-74
2021/12/01 00:51:36;;;;;;;15.17;5.17;;;;;;;-145.18;100.00;60484.78;5029121;28;20490;-74
2021/12/01 00:54:02;;;;;;;14.27;5.10;;;;;;;-145.18;100.00;60484.78;5031431;28;20100;-73
2021/12/01 00:56:27;;;;;;;18.23;5.27;;;;;;;-145.18;100.00;60484.78;5037862;28;20025;-74
2021/12/01 00:58:53;;;;;;;15.47;5.23;;;;;;;-145.18;100.00;60484.78;5033868;28;20044;-74
2021/12/01 01:01:19;;;;;;;16.00;5.20;;;;;;;-145.18;100.00;60484.78;5031355;28;20187;-74
2021/12/01 01:03:44;;;;;;;17.60;5.43;;;;;;;-145.18;100.00;60484.78;5031896;28;20413;-74
2021/12/01 01:06:10;;;;;;;14.87;5.20;;;;;;;-145.18;100.00;60484.78;5035259;28;20553;-75
2021/12/01 01:08:35;;;;;;;14.63;4.50;;;;;;;-145.18;100.00;60484.78;5034541;28;20112;-75
2021/12/01 01:16:25;;;;;;;18.67;5.03;;;;;;;-145.18;100.00;60484.78;5032043;28;20078;-75
2021/12/01 01:19:02;;;;;;;18.27;5.17;;;;;;;-145.18;100.00;60484.78;5036628;28;20482;-75
2021/12/01 01:21:31;;;;;;;14.93;4.83;;;;;;;-145.18;100.00;60484.78;5035400;28;20025;-75
2021/12/01 01:23:57;;;;;;;17.10;4.63;;;;;;;-145.18;100.00;60484.78;5038036;28;20013;-75
2021/12/01 01:26:24;;;;;;;16.97;5.00;;;;;;;-145.18;100.00;60484.78;5034763;28;20033;-76
2021/12/01 01:28:50;;;;;;;17.83;5.43;;;;;;;-145.18;100.00;60484.78;5034962;28;20033;-75
2021/12/01 01:31:17;;;;;;;16.87;5.07;;;;;;;-145.18;100.00;60484.78;5028729;28;20068;-74
2021/12/01 01:33:42;;;;;;;16.83;5.33;;;;;;;-145.18;100.00;60484.78;5036059;28;20059;-74
2021/12/01 01:36:08;;;;;;;15.73;5.10;;;;;;;-145.18;100.00;60484.78;5034425;28;20481;-75
2021/12/01 01:38:34;;;;;;;19.30;5.17;;;;;;;-145.18;100.00;60484.78;5011354;28;20029;-74
2021/12/01 01:41:02;;;;;;;16.47;4.40;;;;;;;-145.18;100.00;60484.78;5011449;28;20104;-74
2021/12/01 01:43:28;;;;;;;17.17;4.80;;;;;;;-145.18;100.00;60484.78;5028169;28;20027;-74
2021/12/01 01:45:55;;;;;;;17.10;5.87;;;;;;;-145.18;100.00;60484.78;5034255;28;20510;-75
2021/12/01 01:48:33;;;;;;;17.47;4.97;;;;;;;-145.18;100.00;60484.78;5029557;28;20090;-74
2021/12/01 01:51:01;;;;;;;20.40;5.47;;;;;;;-145.18;100.00;60484.78;5037585;28;20055;-75
2021/12/01 01:53:28;;;;;;;22.13;5.97;;;;;;;-145.18;100.00;60484.78;5032219;28;20052;-74
2021/12/01 01:55:58;;;;;;;20.17;5.77;;;;;;;-145.18;100.00;60484.78;5029824;28;20027;-74
2021/12/01 01:58:25;;;;;;;23.40;6.10;;;;;;;-145.18;100.00;60484.78;5026905;28;20041;-75
2021/12/01 02:01:03;;;;;;;20.93;5.27;;;;;;;-145.18;100.00;60484.78;5029645;28;20029;-74
2021/12/01 02:03:29;;;;;;;20.60;5.53;;;;;;;-145.18;100.00;60484.78;5028599;28;20697;-74
2021/12/01 02:05:56;;;;;;;20.73;6.20;;;;;;;-145.18;100.00;60484.78;5038478;28;20112;-74
2021/12/01 02:08:29;;;;;;;24.50;6.23;;;;;;;-145.18;100.00;60484.78;5013341;28;20036;-74
2021/12/01 02:10:58;;;;;;;24.10;6.50;;;;;;;-145.18;100.00;60484.78;5036745;28;20067;-73
2021/12/01 02:13:23;;;;;;;25.17;6.40;;;;;;;-145.18;100.00;60484.78;5033563;28;20413;-74
2021/12/01 02:15:51;;;;;;;24.87;6.77;;;;;;;-145.18;100.00;60484.78;5025145;28;20029;-74
2021/12/01 02:18:18;;;;;;;31.23;7.50;;;;;;;-145.18;100.00;60484.78;5026866;28;20033;-74
2021/12/01 02:21:01;;;;;;;33.87;8.40;;;;;;;-145.18;100.00;60484.78;5032200;28;20030;-74
2021/12/01 02:23:27;;;;;;;29.83;8.47;;;;;;;-145.18;100.00;60484.78;5030070;28;20570;-74
2021/12/01 02:25:53;;;;;;;36.73;9.57;;;;;;;-145.18;100.00;60484.78;5035471;28;20029;-74
2021/12/01 02:28:19;;;;;;;37.53;10.17;;;;;;;-145.18;100.00;60484.78;5037074;28;20033;-74
2021/12/01 02:30:44;;;;;;;29.47;9.30;;;;;;;-145.18;100.00;60484.78;5027933;28;20514;-74
2021/12/01 02:33:10;;;;;;;25.10;8.47;;;;;;;-145.18;100.00;60484.78;5036356;28;20056;-74
2021/12/01 02:35:35;;;;;;;31.77;9.53;;;;;;;-145.18;100.00;60484.78;5039765;28;20111;-73
2021/12/01 02:38:03;;;;;;;28.80;9.33;;;;;;;-145.18;100.00;60484.78;5033000;28;20469;-74
2021/12/01 02:40:29;;;;;;;32.03;9.17;;;;;;;-145.18;100.00;60484.78;5037200;28;20017;-74
2021/12/01 02:42:54;;;;;;;25.37;9.07;;;;;;;-145.18;100.00;60484.78;5039346;28;20385;-74
2021/12/01 02:45:20;;;;;;;31.67;8.53;;;;;;;-145.18;100.00;60484.78;5033746;28;20028;-73
2021/12/01 02:47:45;;;;;;;26.13;8.10;;;;;;;-145.18;100.00;60484.78;5040637;28;20033;-74
2021/12/01 02:50:11;;;;;;;21.20;7.80;;;;;;;-145.18;100.00;60484.78;5036114;28;20124;-74
2021/12/01 02:52:37;;;;;;;19.10;6.80;;;;;;;-145.18;100.00;60484.78;5025011;28;20033;-74
2021/12/01 02:55:07;;;;;;;22.67;8.00;;;;;;;-145.18;100.00;60484.78;5036258;28;20043;-73
2021/12/01 02:57:59;;;;;;;20.70;7.30;;;;;;;-145.18;100.00;60484.78;5037715;28;20029;-73
2021/12/01 03:00:26;;;;;;;16.10;5.82;;;;;;;-145.18;100.00;60484.78;5014485;28;20040;-73
2021/12/01 03:02:53;;;;;;;19.00;6.50;;;;;;;-145.18;100.00;60484.78;5035251;28;20055;-73
2021/12/01 03:05:19;;;;;;;15.50;6.03;;;;;;;-145.18;100.00;60484.78;5038531;28;20029;-73
2021/12/01 03:07:46;;;;;;;12.77;4.70;;;;;;;-145.18;100.00;60484.78;5040163;28;20405;-73
2021/12/01 03:10:12;;;;;;;11.43;4.53;;;;;;;-145.18;100.00;60484.78;5035693;28;20104;-73
2021/12/01 03:12:39;;;;;;;9.60;4.07;;;;;;;-145.18;100.00;60484.78;5037521;28;20170;-73
2021/12/01 03:15:07;;;;;;;8.30;3.40;;;;;;;-145.18;100.00;60484.78;5037222;28;20029;-74
2021/12/01 03:17:35;;;;;;;8.57;3.57;;;;;;;-145.18;100.00;60484.78;5038083;28;20025;-73
2021/12/01 03:20:01;;;;;;;9.33;3.37;;;;;;;-145.18;100.00;60484.78;5033918;28;20022;-73
2021/12/01 03:22:26;;;;;;;7.70;2.93;;;;;;;-145.18;100.00;60484.78;5040183;28;20035;-73
2021/12/01 03:24:53;;;;;;;7.00;3.00;;;;;;;-145.18;100.00;60484.78;5040885;28;20096;-73
2021/12/01 03:27:18;;;;;;;7.67;3.17;;;;;;;-145.18;100.00;60484.78;5040014;28;20040;-73
2021/12/01 03:29:50;;;;;;;6.80;2.57;;;;;;;-145.18;100.00;60484.78;5041878;28;20425;-74
2021/12/01 03:32:16;;;;;;;5.65;2.10;;;;;;;-145.18;100.00;60484.78;5036169;28;20033;-73
2021/12/01 03:34:43;;;;;;;5.60;2.47;;;;;;;-145.18;100.00;60484.78;5028857;28;20191;-73
2021/12/01 03:37:10;;;;;;;5.73;2.47;;;;;;;-145.18;100.00;60484.78;5032254;28;20654;-73
2021/12/01 03:39:35;;;;;;;3.63;1.50;;;;;;;-145.18;100.00;60484.78;5037141;28;20036;-73
2021/12/01 03:42:01;;;;;;;4.30;1.90;;;;;;;-145.18;100.00;60484.78;5034194;28;20025;-73
2021/12/01 03:44:27;;;;;;;3.63;1.70;;;;;;;-145.18;100.00;60484.78;5033516;28;20029;-73
2021/12/01 03:46:53;;;;;;;4.23;1.70;;;;;;;-145.18;100.00;60484.78;5040484;28;20025;-72
2021/12/01 03:49:19;;;;;;;3.20;1.53;;;;;;;-145.18;100.00;60484.78;5033005;28;20640;-73
2021/12/01 03:51:44;;;;;;;4.90;1.30;;;;;;;-145.18;100.00;60484.78;5042745;28;20051;-72
2021/12/01 03:54:10;;;;;;;3.13;1.30;;;;;;;-145.18;100.00;60484.78;5031813;28;20052;-72
2021/12/01 03:56:36;;;;;;;3.27;1.37;;;;;;;-145.18;100.00;60484.78;5038046;28;20029;-72
2021/12/01 03:59:04;;;;;;;2.43;0.97;;;;;;;-145.18;100.00;60484.78;5038838;28;20051;-73
2021/12/01 04:01:29;;;;;;;3.00;1.20;;;;;;;-145.18;100.00;60484.78;5040691;28;20108;-72
2021/12/01 04:03:55;;;;;;;3.30;1.40;;;;;;;-145.18;100.00;60484.78;5039991;28;20057;-73
2021/12/01 04:06:20;;;;;;;1.93;0.90;;;;;;;-145.18;100.00;60484.78;5039408;28;20469;-72
2021/12/01 04:08:46;;;;;;;2.20;1.20;;;;;;;-145.18;100.00;60484.78;5039678;28;20033;-72
2021/12/01 04:11:11;;;;;;;1.80;0.90;;;;;;;-145.18;100.00;60484.78;5035946;28;20090;-72
2021/12/01 04:13:37;;;;;;;1.90;1.00;;;;;;;-145.18;100.00;60484.78;5041398;28;20032;-74
2021/12/01 04:16:03;;;;;;;2.10;0.90;;;;;;;-145.18;100.00;60484.78;5042552;28;20102;-73
2021/12/01 04:18:28;;;;;;;2.00;0.83;;;;;;;-145.18;100.00;60484.78;5042376;28;20377;-73
2021/12/01 04:20:53;;;;;;;2.30;1.00;;;;;;;-145.18;100.00;60484.78;5042350;28;20029;-73
2021/12/01 04:23:19;;;;;;;2.30;1.10;;;;;;;-145.18;100.00;60484.78;5041853;28;20032;-72
2021/12/01 04:25:45;;;;;;;3.07;1.07;;;;;;;-145.18;100.00;60484.78;5041757;28;20039;-73
2021/12/01 04:28:11;;;;;;;2.53;1.27;;;;;;;-145.18;100.00;60484.78;5041898;28;20025;-73
2021/12/01 04:30:37;;;;;;;2.97;1.33;;;;;;;-145.18;100.00;60484.78;5041981;28;20135;-73
2021/12/01 04:33:02;;;;;;;2.67;1.10;;;;;;;-145.18;100.00;60484.78;5041530;28;20572;-73
2021/12/01 04:35:28;;;;;;;2.43;1.17;;;;;;;-145.18;100.00;60484.78;5041637;28;20025;-73
2021/12/01 04:37:55;;;;;;;2.27;1.10;;;;;;;-145.18;100.00;60484.78;5041490;28;20423;-73
2021/12/01 04:40:20;;;;;;;2.70;1.37;;;;;;;-145.18;100.00;60484.78;5041878;28;20215;-72
2021/12/01 04:42:46;;;;;;;2.33;0.90;;;;;;;-145.18;100.00;60484.78;5041298;28;20028;-72
2021/12/01 04:45:14;;;;;;;3.67;1.57;;;;;;;-145.18;100.00;60484.78;5041642;28;20067;-72
2021/12/01 04:47:48;;;;;;;4.60;1.40;;;;;;;-145.18;100.00;60484.78;5042325;28;20663;-73
2021/12/01 04:50:16;;;;;;;4.97;1.83;;;;;;;-145.18;100.00;60484.78;5041648;28;20092;-73
2021/12/01 04:52:42;;;;;;;3.70;1.53;;;;;;;-145.18;100.00;60484.78;5040392;28;20037;-72
2021/12/01 04:55:08;;;;;;;3.30;1.40;;;;;;;-145.18;100.00;60484.78;5041276;28;20090;-72
2021/12/01 04:57:34;;;;;;;4.03;1.80;;;;;;;-145.18;100.00;60484.78;5041112;28;20055;-72
2021/12/01 05:00:00;;;;;;;3.97;1.70;;;;;;;-145.18;100.00;60484.78;5041694;28;20021;-72
2021/12/01 05:02:25;;;;;;;4.77;1.80;;;;;;;-145.18;100.00;60484.78;5038911;28;20048;-72
2021/12/01 05:04:50;;;;;;;3.67;1.53;;;;;;;-145.18;100.00;60484.78;5041854;28;20505;-73
2021/12/01 05:07:17;;;;;;;3.70;1.83;;;;;;;-145.18;100.00;60484.78;5041656;28;20497;-73
2021/12/01 05:09:42;;;;;;;2.70;1.60;;;;;;;-145.18;100.00;60484.78;5041814;28;20477;-72
2021/12/01 05:12:08;;;;;;;4.57;1.60;;;;;;;-145.18;100.00;60484.78;5041156;28;20032;-72
2021/12/01 05:14:38;;;;;;;4.07;1.50;;;;;;;-145.18;100.00;60484.78;5041918;28;20461;-72
2021/12/01 05:17:04;;;;;;;2.80;1.10;;;;;;;-145.18;100.00;60484.78;5041405;28;20028;-72
2021/12/01 05:19:29;;;;;;;3.67;1.67;;;;;;;-145.18;100.00;60484.78;5041386;28;20117;-72
2021/12/01 05:21:55;;;;;;;2.70;1.40;;;;;;;-145.18;100.00;60484.78;5039748;28;20400;-72
2021/12/01 05:24:21;;;;;;;4.50;1.73;;;;;;;-145.18;100.00;60484.78;5036036;28;20701;-73
2021/12/01 05:26:47;;;;;;;4.00;1.80;;;;;;;-145.18;100.00;60484.78;5039605;28;20120;-72
2021/12/01 05:29:12;;;;;;;2.60;1.40;;;;;;;-145.18;100.00;60484.78;5039921;28;20054;-73
2021/12/01 05:31:38;;;;;;;3.33;1.80;;;;;;;-145.18;100.00;60484.78;5041865;28;20028;-73
2021/12/01 05:34:03;;;;;;;2.57;1.20;;;;;;;-145.18;100.00;60484.78;5040722;28;20075;-73
2021/12/01 05:36:29;;;;;;;3.00;1.60;;;;;;;-145.18;100.00;60484.78;5040813;28;20409;-72
2021/12/01 05:38:55;;;;;;;3.10;1.40;;;;;;;-145.18;100.00;60484.78;5040728;28;20052;-72
2021/12/01 05:41:20;;;;;;;3.07;1.50;;;;;;;-145.18;100.00;60484.78;5041539;28;20312;-72
2021/12/01 05:43:47;;;;;;;2.63;1.30;;;;;;;-145.18;100.00;60484.78;5040226;28;20031;-71
2021/12/01 05:46:13;;;;;;;2.50;1.20;;;;;;;-145.18;100.00;60484.78;5039092;28;20017;-72
2021/12/01 05:48:38;;;;;;;3.37;1.50;;;;;;;-145.18;100.00;60484.78;5041292;28;20038;-72
2021/12/01 05:51:04;;;;;;;3.50;1.63;;;;;;;-145.18;100.00;60484.78;5039281;28;20020;-72
2021/12/01 05:53:29;;;;;;;2.77;1.20;;;;;;;-145.18;100.00;60484.78;5040540;28;20025;-72
2021/12/01 05:55:55;;;;;;;2.83;1.43;;;;;;;-145.18;100.00;60484.78;5040207;28;20086;-72
2021/12/01 05:58:20;;;;;;;2.00;1.00;;;;;;;-145.18;100.00;60484.78;5040352;28;20025;-72
2021/12/01 06:00:46;;;;;;;3.20;1.70;;;;;;;-145.18;100.00;60484.78;5039370;28;20114;-71
2021/12/01 06:03:11;;;;;;;2.33;1.27;;;;;;;-145.18;100.00;60484.78;5033606;28;20149;-72
2021/12/01 06:05:37;;;;;;;2.67;1.20;;;;;;;-145.18;100.00;60484.78;5039328;28;20025;-72
2021/12/01 06:08:02;;;;;;;1.67;1.00;;;;;;;-145.18;100.00;60484.78;5040235;28;20028;-72
2021/12/01 06:10:28;;;;;;;2.13;1.20;;;;;;;-145.18;100.00;60484.78;5041205;28;20013;-72
2021/12/01 06:12:54;;;;;;;4.80;1.67;;;;;;;-145.18;100.00;60484.78;5031984;28;20051;-72
2021/12/01 06:15:20;;;;;;;2.43;1.27;;;;;;;-145.18;100.00;60484.78;5040403;28;20106;-71
2021/12/01 06:17:46;;;;;;;4.90;1.40;;;;;;;-145.18;100.00;60484.78;5038408;28;21050;-72
2021/12/01 06:20:13;;;;;;;2.27;1.17;;;;;;;-145.18;100.00;60484.78;5045065;28;20101;-72
2021/12/01 06:22:42;;;;;;;2.67;1.30;;;;;;;-145.18;100.00;60484.78;5044081;28;20075;-72
2021/12/01 06:25:08;;;;;;;3.00;1.47;;;;;;;-145.18;100.00;60484.78;5043287;28;20059;-72
2021/12/01 06:27:35;;;;;;;2.90;1.30;;;;;;;-145.18;100.00;60484.78;5044007;28;20095;-72
2021/12/01 06:30:00;;;;;;;3.77;1.77;;;;;;;-145.18;100.00;60484.78;5039564;28;20051;-71
2021/12/01 06:32:26;;;;;;;3.40;1.73;;;;;;;-145.18;100.00;60484.78;5044445;28;20025;-72
2021/12/01 06:34:51;;;;;;;3.90;1.80;;;;;;;-145.18;100.00;60484.78;5044612;28;20066;-71
2021/12/01 06:37:18;;;;;;;4.07;2.03;;;;;;;-145.18;100.00;60484.78;5042999;28;20112;-72
2021/12/01 06:39:44;;;;;;;3.77;2.10;;;;;;;-145.18;100.00;60484.78;5044290;28;20090;-72
2021/12/01 06:42:09;;;;;;;4.60;2.67;;;;;;;-145.18;100.00;60484.78;5026524;28;20035;-72
2021/12/01 06:44:35;;;;;;;5.90;2.83;;;;;;;-145.18;100.00;60484.78;5044318;28;20119;-72
2021/12/01 06:47:02;;;;;;;4.90;2.70;;;;;;;-145.18;100.00;60484.78;5043402;28;20036;-72
2021/12/01 06:49:27;;;;;;;6.33;2.80;;;;;;;-145.18;100.00;60484.78;5044211;28;20041;-73
2021/12/01 06:51:53;;;;;;;7.57;4.03;;;;;;;-145.18;100.00;60484.78;5044144;28;20056;-73
2021/12/01 06:54:18;;;;;;;6.40;4.00;;;;;;;-145.18;100.00;60484.78;5043735;28;20504;-73
2021/12/01 06:56:44;;;;;;;5.90;3.67;;;;;;;-145.18;100.00;60484.78;5043822;28;20025;-73
2021/12/01 06:59:09;;;;;;;8.33;3.40;;;;;;;-145.18;100.00;60484.78;5044408;28;20078;-73
2021/12/01 07:01:35;;;;;;;7.63;4.30;;;;;;;-145.18;100.00;60484.78;5039850;28;20029;-73
2021/12/01 07:04:00;;;;;;;8.20;4.23;;;;;;;-145.18;100.00;60484.78;5033753;28;20144;-72
2021/12/01 07:06:26;;;;;;;7.13;3.90;;;;;;;-145.18;100.00;60484.78;5043521;28;20025;-73
2021/12/01 07:08:52;;;;;;;7.83;4.70;;;;;;;-145.18;100.00;60484.78;5044325;28;20104;-72
2021/12/01 07:11:17;;;;;;;7.37;4.27;;;;;;;-145.18;100.00;60484.78;5040333;28;20021;-73
2021/12/01 07:13:43;;;;;;;6.90;4.20;;;;;;;-145.18;100.00;60484.78;5042631;28;20055;-73
2021/12/01 07:16:08;;;;;;;8.47;4.03;;;;;;;-145.18;100.00;60484.78;5043564;28;20025;-73
2021/12/01 07:18:33;;;;;;;6.70;4.17;;;;;;;-145.18;100.00;60484.78;5043972;28;20520;-73
2021/12/01 07:20:59;;;;;;;7.43;4.53;;;;;;;-145.18;100.00;60484.78;5025397;28;20182;-74
2021/12/01 07:23:25;;;;;;;7.50;4.10;;;;;;;-145.18;100.00;60484.78;5039648;28;20035;-73
2021/12/01 07:25:50;;;;;;;8.23;4.40;;;;;;;-145.18;100.00;60484.78;5043164;28;20040;-73
2021/12/01 07:28:16;;;;;;;7.53;4.03;;;;;;;-145.18;100.00;60484.78;5043154;28;20025;-72
2021/12/01 07:30:41;;;;;;;8.00;4.70;;;;;;;-145.18;100.00;60484.78;5023829;28;20057;-73
2021/12/01 07:33:07;;;;;;;6.20;3.40;;;;;;;-145.18;100.00;60484.78;5042149;28;20127;-72
2021/12/01 07:35:33;;;;;;;7.67;4.30;;;;;;;-145.18;100.00;60484.78;5043950;28;20543;-73
2021/12/01 07:37:58;;;;;;;6.57;3.47;;;;;;;-145.18;100.00;60484.78;5043115;28;20429;-73
2021/12/01 07:40:24;;;;;;;6.93;3.87;;;;;;;-145.18;100.00;60484.78;5041575;28;20039;-72
2021/12/01 07:42:51;;;;;;;6.17;3.97;;;;;;;-145.18;100.00;60484.78;5041454;28;20555;-73
2021/12/01 07:45:16;;;;;;;7.67;4.60;;;;;;;-145.18;100.00;60484.78;5042874;28;20104;-73
2021/12/01 07:47:42;;;;;;;6.13;3.90;;;;;;;-145.18;100.00;60484.78;5042956;28;20174;-73
2021/12/01 07:50:08;;;;;;;6.23;3.73;;;;;;;-145.18;100.00;60484.78;5031597;28;20020;-72
2021/12/01 07:52:35;;;;;;;6.40;3.90;;;;;;;-145.18;100.00;60484.78;5054806;28;20025;-73
2021/12/01 07:55:01;;;;;;;6.17;3.70;;;;;;;-145.18;100.00;60484.78;5043433;28;20386;-73
2021/12/01 07:57:26;;;;;;;6.00;3.63;;;;;;;-145.18;100.00;60484.78;5042624;28;20031;-74
2021/12/01 07:59:52;;;;;;;4.97;3.10;;;;;;;-145.18;100.00;60484.78;5043476;28;20025;-72
2021/12/01 08:02:17;;;;;;;5.67;3.23;;;;;;;-145.18;100.00;60484.78;5039634;28;20045;-72
2021/12/01 08:04:43;;;;;;;6.10;3.80;;;;;;;-145.18;100.00;60484.78;5034190;28;20036;-72
2021/12/01 08:07:08;;;;;;;5.00;2.97;;;;;;;-145.18;100.00;60484.78;5042111;28;20088;-73
2021/12/01 08:09:34;;;;;;;4.90;2.80;;;;;;;-145.18;100.00;60484.78;5043052;28;20052;-73
2021/12/01 08:12:00;;;;;;;5.50;3.13;;;;;;;-145.18;100.00;60484.78;5042987;28;20596;-73
2021/12/01 08:14:25;;;;;;;4.50;3.00;;;;;;;-145.18;100.00;60484.78;5043063;28;20344;-73
2021/12/01 08:16:51;;;;;;;5.90;2.87;;;;;;;-145.18;100.00;60484.78;5041743;28;20048;-73
2021/12/01 08:19:17;;;;;;;4.30;2.40;;;;;;;-145.18;100.00;60484.78;5041013;28;20052;-73
2021/12/01 08:21:46;;;;;;;5.37;2.70;;;;;;;-145.18;100.00;60484.78;5035176;28;20036;-73
2021/12/01 08:24:12;;;;;;;5.70;2.73;;;;;;;-145.18;100.00;60484.78;5040981;28;20032;-73
2021/12/01 08:26:39;;;;;;;4.27;2.27;;;;;;;-145.18;100.00;60484.78;5024217;28;20027;-73
2021/12/01 08:29:05;;;;;;;4.73;2.50;;;;;;;-145.18;100.00;60484.78;5042253;28;20605;-73
2021/12/01 08:31:30;;;;;;;4.37;2.47;;;;;;;-145.18;100.00;60484.78;5041695;28;20020;-73
2021/12/01 08:33:56;;;;;;;4.00;2.43;;;;;;;-145.18;100.00;60484.78;5042639;28;20076;-73
2021/12/01 08:36:21;;;;;;;4.13;2.33;;;;;;;-145.18;100.00;60484.78;5042182;28;20021;-73
2021/12/01 08:38:47;;;;;;;5.87;2.47;;;;;;;-145.18;100.00;60484.78;5039767;28;20032;-73
2021/12/01 08:41:13;;;;;;;3.90;2.20;;;;;;;-145.18;100.00;60484.78;5041657;28;20039;-73
2021/12/01 08:43:38;;;;;;;4.17;2.33;;;;;;;-145.18;100.00;60484.78;5042448;28;20021;-73
2021/12/01 08:46:05;;;;;;;4.40;2.20;;;;;;;-145.18;100.00;60484.78;5042192;28;20692;-73
2021/12/01 08:48:31;;;;;;;3.83;2.33;;;;;;;-145.18;100.00;60484.78;5042127;28;20057;-73
2021/12/01 08:50:58;;;;;;;3.77;2.13;;;;;;;-145.18;100.00;60484.78;5027838;28;20675;-73
2021/12/01 08:53:24;;;;;;;3.50;2.00;;;;;;;-145.18;100.00;60484.78;5044192;28;20024;-73
2021/12/01 08:55:49;;;;;;;4.60;1.80;;;;;;;-145.18;100.00;60484.78;5042140;28;20036;-73
2021/12/01 08:58:16;;;;;;;3.23;1.70;;;;;;;-145.18;100.00;60484.78;5042188;28;20086;-72
2021/12/01 09:00:44;;;;;;;2.77;1.60;;;;;;;-145.18;100.00;60484.78;5042016;28;20528;-72
2021/12/01 09:03:14;;;;;;;2.67;1.50;;;;;;;-145.18;100.00;60484.78;5031146;28;20445;-72
2021/12/01 09:05:40;;;;;;;3.43;1.80;;;;;;;-145.18;100.00;60484.78;5049290;28;20048;-72
2021/12/01 09:08:07;;;;;;;3.27;1.73;;;;;;;-145.18;100.00;60484.78;5039909;28;20036;-73
2021/12/01 09:10:33;;;;;;;3.50;1.80;;;;;;;-145.18;100.00;60484.78;5041173;28;20017;-73
2021/12/01 09:12:59;;;;;;;3.60;2.07;;;;;;;-145.18;100.00;60484.78;5041723;28;20035;-73
2021/12/01 09:15:24;;;;;;;3.43;1.70;;;;;;;-145.18;100.00;60484.78;5039634;28;20159;-73
2021/12/01 09:17:50;;;;;;;3.43;1.90;;;;;;;-145.18;100.00;60484.78;5041613;28;20121;-73
2021/12/01 09:20:15;;;;;;;3.07;1.60;;;;;;;-145.18;100.00;60484.78;5041162;28;20064;-72
2021/12/01 09:22:41;;;;;;;2.70;1.70;;;;;;;-145.18;100.00;60484.78;5041281;28;20086;-73
2021/12/01 09:25:07;;;;;;;2.87;1.50;;;;;;;-145.18;100.00;60484.78;5035147;28;20024;-73
2021/12/01 09:27:33;;;;;;;3.47;1.83;;;;;;;-145.18;100.00;60484.78;5041863;28;20062;-73
2021/12/01 09:29:59;;;;;;;3.00;1.70;;;;;;;-145.18;100.00;60484.78;5040636;28;20036;-72
2021/12/01 09:32:25;;;;;;;4.20;1.20;;;;;;;-145.18;100.00;60484.78;5040537;28;20025;-73
2021/12/01 09:34:51;;;;;;;2.90;1.60;;;;;;;-145.18;100.00;60484.78;5041516;28;20035;-73
2021/12/01 09:37:16;;;;;;;2.87;1.50;;;;;;;-145.18;100.00;60484.78;5040605;28;20556;-74
2021/12/01 09:39:43;;;;;;;2.33;1.33;;;;;;;-145.18;100.00;60484.78;5041269;28;20029;-74
2021/12/01 09:42:11;;;;;;;2.87;1.60;;;;;;;-145.18;100.00;60484.78;5040690;28;20029;-74
2021/12/01 09:44:38;;;;;;;1.83;1.00;;;;;;;-145.18;100.00;60484.78;5040578;28;20033;-73
2021/12/01 09:47:04;;;;;;;3.87;1.60;;;;;;;-145.18;100.00;60484.78;5039087;28;20033;-73
2021/12/01 09:49:30;;;;;;;1.93;1.10;;;;;;;-145.18;100.00;60484.78;5032456;28;20025;-73
2021/12/01 09:51:56;;;;;;;3.47;1.20;;;;;;;-145.18;100.00;60484.78;5031560;28;20117;-73
2021/12/01 09:54:21;;;;;;;2.67;1.20;;;;;;;-145.18;100.00;60484.78;5040203;28;20032;-74
2021/12/01 09:56:47;;;;;;;4.37;2.37;;;;;;;-145.18;100.00;60484.78;5037617;28;20036;-73
2021/12/01 09:59:13;;;;;;;2.37;1.20;;;;;;;-145.18;100.00;60484.78;5040072;28;20381;-74
2021/12/01 10:01:38;;;;;;;1.93;1.10;;;;;;;-145.18;100.00;60484.78;5040471;28;20033;-73
2021/12/01 10:04:04;;;;;;;2.27;1.20;;;;;;;-145.18;100.00;60484.78;5040429;28;20045;-73
2021/12/01 10:06:30;;;;;;;2.47;1.00;;;;;;;-145.18;100.00;60484.78;5041258;28;20040;-73
2021/12/01 10:09:07;;;;;;;2.00;1.03;;;;;;;-145.18;100.00;60484.78;5022720;28;20746;-73
2021/12/01 10:11:36;;;;;;;2.03;0.97;;;;;;;-145.18;100.00;60484.78;5039332;28;20059;-72
2021/12/01 10:14:05;;;;;;;2.00;1.10;;;;;;;-145.18;100.00;60484.78;5036435;28;20033;-73
2021/12/01 10:16:35;;;;;;;3.43;1.07;;;;;;;-145.18;100.00;60484.78;5037641;28;20108;-73
2021/12/01 10:19:05;;;;;;;1.93;1.03;;;;;;;-145.18;100.00;60484.78;5040827;28;20075;-73
2021/12/01 10:21:33;;;;;;;2.07;1.20;;;;;;;-145.18;100.00;60484.78;5036520;28;20025;-73
2021/12/01 10:24:09;;;;;;;3.00;1.20;;;;;;;-145.18;100.00;60484.78;5040449;28;20021;-73
2021/12/01 10:26:44;;;;;;;2.60;1.43;;;;;;;-145.18;100.00;60484.78;5041725;28;20040;-73
2021/12/01 10:29:13;;;;;;;2.77;1.03;;;;;;;-145.18;100.00;60484.78;5040895;28;20021;-74
2021/12/01 10:31:46;;;;;;;1.60;0.90;;;;;;;-145.18;100.00;60484.78;5040929;28;20390;-74
2021/12/01 10:34:28;;;;;;;2.40;1.20;;;;;;;-145.18;100.00;60484.78;5040285;28;20040;-73
2021/12/01 10:37:18;;;;;;;2.33;1.23;;;;;;;-145.18;100.00;60484.78;5032420;28;20477;-74
2021/12/01 10:39:46;;;;;;;2.50;1.30;;;;;;;-145.18;100.00;60484.78;5040815;28;20033;-74
2021/12/01 10:42:15;;;;;;;3.83;1.40;;;;;;;-145.18;100.00;60484.78;5040527;28;20083;-75
2021/12/01 10:44:59;;;;;;;4.73;1.87;;;;;;;-145.18;100.00;60484.78;5040579;28;20167;-74
2021/12/01 10:47:25;;;;;;;2.93;1.43;;;;;;;-145.18;100.00;60484.78;5040669;28;20035;-74
2021/12/01 10:49:50;;;;;;;4.57;1.70;;;;;;;-145.18;100.00;60484.78;5040641;28;20473;-74
2021/12/01 10:52:34;;;;;;;3.27;1.50;;;;;;;-145.18;100.00;60484.78;5039913;28;20025;-73
2021/12/01 10:55:21;;;;;;;3.03;1.37;;;;;;;-145.18;100.00;60484.78;5040909;28;20096;-73
2021/12/01 10:57:57;;;;;;;2.13;1.20;;;;;;;-145.18;100.00;60484.78;5039929;28;20060;-72
2021/12/01 11:00:22;;;;;;;3.20;1.20;;;;;;;-145.18;100.00;60484.78;5040381;28;20508;-73
2021/12/01 11:02:49;;;;;;;1.77;0.80;;;;;;;-145.18;100.00;60484.78;5024461;28;20041;-72
2021/12/01 11:05:41;;;;;;;2.27;1.23;;;;;;;-145.18;100.00;60484.78;5021772;28;20025;-72
2021/12/01 11:08:25;;;;;;;4.03;0.90;;;;;;;-145.18;100.00;60484.78;5017327;28;20060;-72
2021/12/01 11:10:59;;;;;;;1.53;0.80;;;;;;;-145.18;100.00;60484.78;5019049;28;20029;-73